sensor_id;sensor_type;location;lat;lon;timestamp;pressure;altitude;pressure_sealevel;temperature;humidity
74631;BME280;63138;55.082;38.804;2022-11-11T00:01:50;100315.25;;;6.79;84.75
74631;BME280;63138;55.082;38.804;2022-11-11T00:04:35;100322.47;;;6.79;84.28
74631;BME280;63138;55.082;38.804;2022-11-11T00:07:19;100323.75;;;6.75;84.31
74631;BME280;63138;55.082;38.804;2022-11-11T00:10:04;100324.03;;;6.72;85.04
74631;BME280;63138;55.082;38.804;2022-11-11T00:12:48;100318.81;;;6.70;85.11
74631;BME280;63138;55.082;38.804;2022-11-11T00:15:36;100312.97;;;6.65;84.72
74631;BME280;63138;55.082;38.804;2022-11-11T00:18:20;100319.22;;;6.65;85.61
74631;BME280;63138;55.082;38.804;2022-11-11T00:21:23;100319.66;;;6.70;84.99
74631;BME280;63138;55.082;38.804;2022-11-11T00:24:23;100325.19;;;6.69;85.35
74631;BME280;63138;55.082;38.804;2022-11-11T00:27:28;100319.09;;;6.67;85.41
74631;BME280;63138;55.082;38.804;2022-11-11T00:30:13;100319.78;;;6.69;85.88
74631;BME280;63138;55.082;38.804;2022-11-11T00:32:57;100321.50;;;6.70;85.80
74631;BME280;63138;55.082;38.804;2022-11-11T00:35:41;100315.38;;;6.68;85.84
74631;BME280;63138;55.082;38.804;2022-11-11T00:38:39;100316.66;;;6.64;86.18
74631;BME280;63138;55.082;38.804;2022-11-11T00:41:30;100325.47;;;6.66;85.78
74631;BME280;63138;55.082;38.804;2022-11-11T00:44:14;100315.69;;;6.65;85.88
74631;BME280;63138;55.082;38.804;2022-11-11T00:46:58;100327.47;;;6.64;86.08
74631;BME280;63138;55.082;38.804;2022-11-11T00:50:06;100330.16;;;6.64;86.42
74631;BME280;63138;55.082;38.804;2022-11-11T00:53:15;100329.59;;;6.60;86.37
74631;BME280;63138;55.082;38.804;2022-11-11T00:56:00;100319.94;;;6.58;86.86
74631;BME280;63138;55.082;38.804;2022-11-11T00:58:44;100314.69;;;6.56;86.77
74631;BME280;63138;55.082;38.804;2022-11-11T01:01:29;100312.97;;;6.55;86.34
74631;BME280;63138;55.082;38.804;2022-11-11T01:04:13;100310.44;;;6.54;86.53
74631;BME280;63138;55.082;38.804;2022-11-11T01:06:57;100304.31;;;6.51;86.40
74631;BME280;63138;55.082;38.804;2022-11-11T01:09:42;100310.25;;;6.55;86.35
74631;BME280;63138;55.082;38.804;2022-11-11T01:12:25;100307.56;;;6.55;86.72
74631;BME280;63138;55.082;38.804;2022-11-11T01:15:10;100317.22;;;6.48;87.26
74631;BME280;63138;55.082;38.804;2022-11-11T01:17:54;100316.09;;;6.50;87.22
74631;BME280;63138;55.082;38.804;2022-11-11T01:20:39;100314.38;;;6.49;86.66
74631;BME280;63138;55.082;38.804;2022-11-11T01:23:24;100319.50;;;6.53;86.88
74631;BME280;63138;55.082;38.804;2022-11-11T01:26:13;100326.06;;;6.50;86.78
74631;BME280;63138;55.082;38.804;2022-11-11T01:28:57;100310.41;;;6.44;87.24
74631;BME280;63138;55.082;38.804;2022-11-11T01:31:42;100323.75;;;6.45;87.01
74631;BME280;63138;55.082;38.804;2022-11-11T01:34:26;100303.31;;;6.43;86.43
74631;BME280;63138;55.082;38.804;2022-11-11T01:37:10;100311.44;;;6.43;86.81
74631;BME280;63138;55.082;38.804;2022-11-11T01:39:55;100309.72;;;6.42;86.86
74631;BME280;63138;55.082;38.804;2022-11-11T01:48:38;100304.44;;;6.40;86.92
74631;BME280;63138;55.082;38.804;2022-11-11T01:54:49;100305.03;;;6.34;87.04
74631;BME280;63138;55.082;38.804;2022-11-11T01:57:55;100303.88;;;6.37;86.88
74631;BME280;63138;55.082;38.804;2022-11-11T02:00:41;100296.78;;;6.36;87.10
74631;BME280;63138;55.082;38.804;2022-11-11T02:03:27;100301.63;;;6.32;87.21
74631;BME280;63138;55.082;38.804;2022-11-11T02:06:14;100305.28;;;6.31;87.55
74631;BME280;63138;55.082;38.804;2022-11-11T02:08:59;100310.56;;;6.32;86.71
74631;BME280;63138;55.082;38.804;2022-11-11T02:11:45;100303.31;;;6.33;87.07
74631;BME280;63138;55.082;38.804;2022-11-11T02:14:50;100293.94;;;6.27;87.36
74631;BME280;63138;55.082;38.804;2022-11-11T02:17:36;100310.13;;;6.27;87.15
74631;BME280;63138;55.082;38.804;2022-11-11T02:20:23;100312.69;;;6.29;87.15
74631;BME280;63138;55.082;38.804;2022-11-11T02:23:19;100302.03;;;6.27;87.34
74631;BME280;63138;55.082;38.804;2022-11-11T02:26:06;100307.41;;;6.27;87.56
74631;BME280;63138;55.082;38.804;2022-11-11T02:28:53;100305.56;;;6.28;87.14
74631;BME280;63138;55.082;38.804;2022-11-11T02:31:38;100321.31;;;6.23;87.01
74631;BME280;63138;55.082;38.804;2022-11-11T02:34:31;100309.81;;;6.21;88.18
74631;BME280;63138;55.082;38.804;2022-11-11T02:37:19;100302.72;;;6.20;88.01
74631;BME280;63138;55.082;38.804;2022-11-11T02:40:05;100298.75;;;6.14;87.82
74631;BME280;63138;55.082;38.804;2022-11-11T02:42:51;100308.81;;;6.12;88.32
74631;BME280;63138;55.082;38.804;2022-11-11T02:45:36;100293.31;;;6.04;88.82
74631;BME280;63138;55.082;38.804;2022-11-11T02:48:20;100313.22;;;6.03;88.79
74631;BME280;63138;55.082;38.804;2022-11-11T02:51:04;100310.78;;;6.00;89.13
74631;BME280;63138;55.082;38.804;2022-11-11T02:53:49;100308.22;;;5.99;89.73
74631;BME280;63138;55.082;38.804;2022-11-11T02:56:34;100295.09;;;5.94;89.45
74631;BME280;63138;55.082;38.804;2022-11-11T02:59:39;100301.50;;;5.93;89.69
74631;BME280;63138;55.082;38.804;2022-11-11T03:02:24;100303.03;;;5.86;90.15
74631;BME280;63138;55.082;38.804;2022-11-11T03:05:10;100307.44;;;5.87;90.27
74631;BME280;63138;55.082;38.804;2022-11-11T03:07:54;100296.50;;;5.79;90.39
74631;BME280;63138;55.082;38.804;2022-11-11T03:10:38;100301.91;;;5.79;90.56
74631;BME280;63138;55.082;38.804;2022-11-11T03:13:23;100303.56;;;5.80;90.90
74631;BME280;63138;55.082;38.804;2022-11-11T03:16:07;100309.53;;;5.73;90.95
74631;BME280;63138;55.082;38.804;2022-11-11T03:19:11;100294.63;;;5.69;90.72
74631;BME280;63138;55.082;38.804;2022-11-11T03:21:57;100308.09;;;5.69;91.12
74631;BME280;63138;55.082;38.804;2022-11-11T03:24:41;100299.44;;;5.66;91.15
74631;BME280;63138;55.082;38.804;2022-11-11T03:27:44;100307.78;;;5.63;91.76
74631;BME280;63138;55.082;38.804;2022-11-11T03:30:28;100310.47;;;5.63;91.92
74631;BME280;63138;55.082;38.804;2022-11-11T03:33:13;100301.81;;;5.59;92.30
74631;BME280;63138;55.082;38.804;2022-11-11T03:35:57;100310.47;;;5.53;92.88
74631;BME280;63138;55.082;38.804;2022-11-11T03:38:44;100315.09;;;5.51;92.84
74631;BME280;63138;55.082;38.804;2022-11-11T03:41:28;100309.00;;;5.49;93.25
74631;BME280;63138;55.082;38.804;2022-11-11T03:44:12;100314.81;;;5.44;93.49
74631;BME280;63138;55.082;38.804;2022-11-11T03:47:00;100309.81;;;5.40;93.64
74631;BME280;63138;55.082;38.804;2022-11-11T03:49:44;100305.56;;;5.37;93.17
74631;BME280;63138;55.082;38.804;2022-11-11T03:52:29;100314.34;;;5.39;93.45
74631;BME280;63138;55.082;38.804;2022-11-11T03:55:13;100312.63;;;5.38;93.80
74631;BME280;63138;55.082;38.804;2022-11-11T03:57:58;100306.94;;;5.31;94.09
74631;BME280;63138;55.082;38.804;2022-11-11T04:00:42;100296.56;;;5.27;93.66
74631;BME280;63138;55.082;38.804;2022-11-11T04:03:27;100291.31;;;5.25;94.47
74631;BME280;63138;55.082;38.804;2022-11-11T04:06:30;100297.28;;;5.29;94.13
74631;BME280;63138;55.082;38.804;2022-11-11T04:09:34;100309.06;;;5.28;93.97
74631;BME280;63138;55.082;38.804;2022-11-11T04:12:38;100315.69;;;5.24;94.20
74631;BME280;63138;55.082;38.804;2022-11-11T04:15:43;100311.03;;;5.26;93.77
74631;BME280;63138;55.082;38.804;2022-11-11T04:18:46;100322.19;;;5.21;93.87
74631;BME280;63138;55.082;38.804;2022-11-11T04:21:49;100319.50;;;5.21;93.73
74631;BME280;63138;55.082;38.804;2022-11-11T04:24:33;100311.44;;;5.21;93.59
74631;BME280;63138;55.082;38.804;2022-11-11T04:27:36;100318.78;;;5.19;94.12
74631;BME280;63138;55.082;38.804;2022-11-11T04:30:20;100325.59;;;5.23;93.51
74631;BME280;63138;55.082;38.804;2022-11-11T04:33:04;100329.31;;;5.22;93.71
74631;BME280;63138;55.082;38.804;2022-11-11T04:35:49;100327.84;;;5.18;93.75
74631;BME280;63138;55.082;38.804;2022-11-11T04:38:33;100315.63;;;5.14;93.85
74631;BME280;63138;55.082;38.804;2022-11-11T04:41:36;100326.84;;;5.19;93.58
74631;BME280;63138;55.082;38.804;2022-11-11T04:44:20;100328.56;;;5.20;93.84
74631;BME280;63138;55.082;38.804;2022-11-11T04:47:23;100320.75;;;5.17;93.70
74631;BME280;63138;55.082;38.804;2022-11-11T04:50:08;100325.16;;;5.18;93.88
74631;BME280;63138;55.082;38.804;2022-11-11T04:52:52;100334.09;;;5.19;93.40
74631;BME280;63138;55.082;38.804;2022-11-11T04:55:38;100318.06;;;5.17;93.63
74631;BME280;63138;55.082;38.804;2022-11-11T04:58:41;100333.50;;;5.15;93.66
74631;BME280;63138;55.082;38.804;2022-11-11T05:01:25;100339.47;;;5.19;93.40
74631;BME280;63138;55.082;38.804;2022-11-11T05:04:28;100340.31;;;5.19;93.31
74631;BME280;63138;55.082;38.804;2022-11-11T05:07:12;100342.59;;;5.24;93.62
74631;BME280;63138;55.082;38.804;2022-11-11T05:10:15;100355.09;;;5.25;93.36
74631;BME280;63138;55.082;38.804;2022-11-11T05:13:00;100343.47;;;5.24;93.16
74631;BME280;63138;55.082;38.804;2022-11-11T05:16:07;100336.03;;;5.16;93.32
74631;BME280;63138;55.082;38.804;2022-11-11T05:19:11;100346.03;;;5.26;92.98
74631;BME280;63138;55.082;38.804;2022-11-11T05:22:31;100345.88;;;5.27;92.89
74631;BME280;63138;55.082;38.804;2022-11-11T05:25:16;100353.69;;;5.30;93.19
74631;BME280;63138;55.082;38.804;2022-11-11T05:28:09;100340.66;;;5.26;93.06
74631;BME280;63138;55.082;38.804;2022-11-11T05:30:54;100358.38;;;5.28;92.72
74631;BME280;63138;55.082;38.804;2022-11-11T05:33:38;100363.34;;;5.33;92.91
74631;BME280;63138;55.082;38.804;2022-11-11T05:36:22;100366.44;;;5.28;92.68
74631;BME280;63138;55.082;38.804;2022-11-11T05:39:06;100371.28;;;5.34;93.24
74631;BME280;63138;55.082;38.804;2022-11-11T05:41:50;100364.94;;;5.35;93.46
74631;BME280;63138;55.082;38.804;2022-11-11T05:44:35;100358.53;;;5.36;93.35
74631;BME280;63138;55.082;38.804;2022-11-11T05:47:19;100358.84;;;5.33;93.06
74631;BME280;63138;55.082;38.804;2022-11-11T05:50:03;100375.44;;;5.39;93.18
74631;BME280;63138;55.082;38.804;2022-11-11T05:52:48;100367.63;;;5.35;93.42
74631;BME280;63138;55.082;38.804;2022-11-11T05:55:33;100368.22;;;5.39;93.15
74631;BME280;63138;55.082;38.804;2022-11-11T05:58:20;100361.09;;;5.38;93.00
74631;BME280;63138;55.082;38.804;2022-11-11T06:01:04;100360.84;;;5.41;93.36
74631;BME280;63138;55.082;38.804;2022-11-11T06:03:49;100362.56;;;5.42;93.21
74631;BME280;63138;55.082;38.804;2022-11-11T06:06:34;100365.09;;;5.44;93.18
74631;BME280;63138;55.082;38.804;2022-11-11T06:09:19;100355.47;;;5.41;92.78
74631;BME280;63138;55.082;38.804;2022-11-11T06:12:03;100364.00;;;5.46;93.18
74631;BME280;63138;55.082;38.804;2022-11-11T06:14:47;100369.78;;;5.42;93.21
74631;BME280;63138;55.082;38.804;2022-11-11T06:17:33;100366.56;;;5.48;93.21
74631;BME280;63138;55.082;38.804;2022-11-11T06:20:17;100382.31;;;5.52;93.08
74631;BME280;63138;55.082;38.804;2022-11-11T06:23:03;100372.25;;;5.54;93.36
74631;BME280;63138;55.082;38.804;2022-11-11T06:25:48;100362.34;;;5.55;92.81
74631;BME280;63138;55.082;38.804;2022-11-11T06:28:52;100359.06;;;5.51;92.98
74631;BME280;63138;55.082;38.804;2022-11-11T06:31:37;100347.88;;;5.56;92.78
74631;BME280;63138;55.082;38.804;2022-11-11T06:34:25;100369.16;;;5.59;92.60
74631;BME280;63138;55.082;38.804;2022-11-11T06:37:09;100356.69;;;5.58;92.94
74631;BME280;63138;55.082;38.804;2022-11-11T06:39:53;100363.31;;;5.54;92.99
74631;BME280;63138;55.082;38.804;2022-11-11T06:42:37;100358.41;;;5.59;93.29
74631;BME280;63138;55.082;38.804;2022-11-11T06:45:26;100371.59;;;5.62;93.19
74631;BME280;63138;55.082;38.804;2022-11-11T06:48:11;100367.19;;;5.61;92.88
74631;BME280;63138;55.082;38.804;2022-11-11T06:51:01;100376.00;;;5.63;93.14
74631;BME280;63138;55.082;38.804;2022-11-11T06:53:45;100361.53;;;5.64;93.03
74631;BME280;63138;55.082;38.804;2022-11-11T06:56:30;100383.25;;;5.72;93.36
74631;BME280;63138;55.082;38.804;2022-11-11T06:59:14;100379.13;;;5.68;93.19
74631;BME280;63138;55.082;38.804;2022-11-11T07:01:58;100385.13;;;5.72;93.14
74631;BME280;63138;55.082;38.804;2022-11-11T07:04:42;100372.66;;;5.71;92.92
74631;BME280;63138;55.082;38.804;2022-11-11T07:07:29;100372.34;;;5.74;92.60
74631;BME280;63138;55.082;38.804;2022-11-11T07:10:14;100380.31;;;5.75;93.13
74631;BME280;63138;55.082;38.804;2022-11-11T07:13:01;100381.03;;;5.78;92.87
74631;BME280;63138;55.082;38.804;2022-11-11T07:15:46;100375.94;;;5.74;92.67
74631;BME280;63138;55.082;38.804;2022-11-11T07:18:30;100387.13;;;5.80;92.64
74631;BME280;63138;55.082;38.804;2022-11-11T07:21:15;100384.16;;;5.83;92.90
74631;BME280;63138;55.082;38.804;2022-11-11T07:23:59;100379.22;;;5.88;92.61
74631;BME280;63138;55.082;38.804;2022-11-11T07:26:44;100384.75;;;5.86;92.46
74631;BME280;63138;55.082;38.804;2022-11-11T07:29:30;100394.25;;;5.90;92.68
74631;BME280;63138;55.082;38.804;2022-11-11T07:32:14;100391.31;;;5.93;92.95
74631;BME280;63138;55.082;38.804;2022-11-11T07:35:00;100399.25;;;5.95;92.56
74631;BME280;63138;55.082;38.804;2022-11-11T07:37:45;100398.53;;;5.93;92.66
74631;BME280;63138;55.082;38.804;2022-11-11T07:40:29;100399.16;;;5.97;92.49
74631;BME280;63138;55.082;38.804;2022-11-11T07:43:14;100396.56;;;5.95;92.70
74631;BME280;63138;55.082;38.804;2022-11-11T07:45:59;100400.59;;;6.01;92.88
74631;BME280;63138;55.082;38.804;2022-11-11T07:48:44;100386.97;;;6.02;92.88
74631;BME280;63138;55.082;38.804;2022-11-11T07:51:31;100393.78;;;6.06;92.77
74631;BME280;63138;55.082;38.804;2022-11-11T07:54:16;100378.03;;;6.02;92.47
74631;BME280;63138;55.082;38.804;2022-11-11T07:57:00;100388.41;;;6.06;92.84
74631;BME280;63138;55.082;38.804;2022-11-11T07:59:45;100392.81;;;6.07;92.65
74631;BME280;63138;55.082;38.804;2022-11-11T08:02:31;100388.13;;;6.09;92.46
74631;BME280;63138;55.082;38.804;2022-11-11T08:05:26;100391.09;;;6.06;92.88
74631;BME280;63138;55.082;38.804;2022-11-11T08:08:21;100387.41;;;6.07;92.79
74631;BME280;63138;55.082;38.804;2022-11-11T08:11:10;100387.16;;;6.10;92.54
74631;BME280;63138;55.082;38.804;2022-11-11T08:13:54;100383.06;;;6.16;91.90
74631;BME280;63138;55.082;38.804;2022-11-11T08:16:38;100391.00;;;6.18;92.23
74631;BME280;63138;55.082;38.804;2022-11-11T08:19:23;100386.34;;;6.20;92.30
74631;BME280;63138;55.082;38.804;2022-11-11T08:22:08;100398.94;;;6.19;91.88
74631;BME280;63138;55.082;38.804;2022-11-11T08:24:53;100392.16;;;6.25;92.00
74631;BME280;63138;55.082;38.804;2022-11-11T08:27:39;100397.13;;;6.29;91.39
74631;BME280;63138;55.082;38.804;2022-11-11T08:30:26;100396.44;;;6.37;91.46
74631;BME280;63138;55.082;38.804;2022-11-11T08:33:11;100393.03;;;6.35;91.04
74631;BME280;63138;55.082;38.804;2022-11-11T08:35:58;100395.31;;;6.40;91.03
74631;BME280;63138;55.082;38.804;2022-11-11T08:38:48;100397.31;;;6.38;90.60
74631;BME280;63138;55.082;38.804;2022-11-11T08:41:36;100392.03;;;6.36;91.12
74631;BME280;63138;55.082;38.804;2022-11-11T08:44:21;100386.53;;;6.38;91.32
74631;BME280;63138;55.082;38.804;2022-11-11T08:47:05;100397.31;;;6.38;91.39
74631;BME280;63138;55.082;38.804;2022-11-11T08:49:50;100379.28;;;6.38;91.65
74631;BME280;63138;55.082;38.804;2022-11-11T08:52:34;100377.28;;;6.40;91.60
74631;BME280;63138;55.082;38.804;2022-11-11T08:55:19;100386.97;;;6.43;91.30
74631;BME280;63138;55.082;38.804;2022-11-11T08:58:09;100397.75;;;6.43;91.17
74631;BME280;63138;55.082;38.804;2022-11-11T09:00:54;100381.97;;;6.38;91.49
74631;BME280;63138;55.082;38.804;2022-11-11T09:03:40;100385.94;;;6.44;91.61
74631;BME280;63138;55.082;38.804;2022-11-11T09:06:28;100396.75;;;6.44;90.92
74631;BME280;63138;55.082;38.804;2022-11-11T09:09:14;100393.91;;;6.45;91.21
74631;BME280;63138;55.082;38.804;2022-11-11T09:12:01;100389.50;;;6.44;90.96
74631;BME280;63138;55.082;38.804;2022-11-11T09:14:45;100378.44;;;6.47;91.85
74631;BME280;63138;55.082;38.804;2022-11-11T09:17:31;100377.72;;;6.45;91.36
74631;BME280;63138;55.082;38.804;2022-11-11T09:20:16;100377.44;;;6.48;91.89
74631;BME280;63138;55.082;38.804;2022-11-11T09:23:01;100378.44;;;6.47;91.30
74631;BME280;63138;55.082;38.804;2022-11-11T09:25:46;100378.88;;;6.53;91.19
74631;BME280;63138;55.082;38.804;2022-11-11T09:28:31;100382.28;;;6.55;91.02
74631;BME280;63138;55.082;38.804;2022-11-11T09:31:19;100376.59;;;6.58;91.24
74631;BME280;63138;55.082;38.804;2022-11-11T09:34:04;100380.00;;;6.60;91.17
74631;BME280;63138;55.082;38.804;2022-11-11T09:36:49;100386.13;;;6.62;91.23
74631;BME280;63138;55.082;38.804;2022-11-11T09:39:34;100392.34;;;6.62;91.49
74631;BME280;63138;55.082;38.804;2022-11-11T09:46:53;100367.78;;;6.65;91.03
74631;BME280;63138;55.082;38.804;2022-11-11T09:49:31;100370.06;;;6.60;91.05
74631;BME280;63138;55.082;38.804;2022-11-11T09:52:23;100385.72;;;6.66;91.08
74631;BME280;63138;55.082;38.804;2022-11-11T09:55:15;100379.88;;;6.61;91.56
74631;BME280;63138;55.082;38.804;2022-11-11T09:58:18;100392.94;;;6.66;91.37
74631;BME280;63138;55.082;38.804;2022-11-11T10:01:09;100399.03;;;6.68;91.68
74631;BME280;63138;55.082;38.804;2022-11-11T10:04:04;100393.50;;;6.69;91.24
74631;BME280;63138;55.082;38.804;2022-11-11T10:06:56;100389.38;;;6.75;91.05
74631;BME280;63138;55.082;38.804;2022-11-11T10:09:48;100387.41;;;6.77;91.77
74631;BME280;63138;55.082;38.804;2022-11-11T10:12:48;100397.91;;;6.80;90.91
74631;BME280;63138;55.082;38.804;2022-11-11T10:15:56;100391.41;;;6.83;91.50
74631;BME280;63138;55.082;38.804;2022-11-11T10:18:51;100390.53;;;6.82;91.39
74631;BME280;63138;55.082;38.804;2022-11-11T10:21:49;100408.16;;;6.86;91.21
74631;BME280;63138;55.082;38.804;2022-11-11T10:24:40;100401.88;;;6.86;91.76
74631;BME280;63138;55.082;38.804;2022-11-11T10:27:25;100406.44;;;6.85;91.10
74631;BME280;63138;55.082;38.804;2022-11-11T10:30:29;100393.22;;;6.82;91.08
74631;BME280;63138;55.082;38.804;2022-11-11T10:33:24;100382.28;;;6.74;91.38
74631;BME280;63138;55.082;38.804;2022-11-11T10:36:16;100404.44;;;6.87;91.19
74631;BME280;63138;55.082;38.804;2022-11-11T10:39:04;100400.63;;;6.90;91.53
74631;BME280;63138;55.082;38.804;2022-11-11T10:41:50;100401.34;;;6.92;91.14
74631;BME280;63138;55.082;38.804;2022-11-11T10:44:34;100402.06;;;6.94;91.54
74631;BME280;63138;55.082;38.804;2022-11-11T10:47:41;100397.91;;;7.00;91.42
74631;BME280;63138;55.082;38.804;2022-11-11T10:50:31;100399.06;;;7.07;91.11
74631;BME280;63138;55.082;38.804;2022-11-11T10:53:51;100400.63;;;7.10;90.20
74631;BME280;63138;55.082;38.804;2022-11-11T11:02:40;100392.50;;;7.19;90.29
74631;BME280;63138;55.082;38.804;2022-11-11T11:05:41;100387.97;;;7.20;90.20
74631;BME280;63138;55.082;38.804;2022-11-11T11:08:32;100400.75;;;7.27;89.66
74631;BME280;63138;55.082;38.804;2022-11-11T11:11:29;100402.91;;;7.24;89.78
74631;BME280;63138;55.082;38.804;2022-11-11T11:14:19;100400.19;;;7.24;89.73
74631;BME280;63138;55.082;38.804;2022-11-11T11:17:13;100402.44;;;7.28;89.83
74631;BME280;63138;55.082;38.804;2022-11-11T11:22:56;100410.13;;;7.33;90.19
74631;BME280;63138;55.082;38.804;2022-11-11T11:25:51;100409.44;;;7.31;89.98
74631;BME280;63138;55.082;38.804;2022-11-11T11:31:37;100418.38;;;7.32;89.24
74631;BME280;63138;55.082;38.804;2022-11-11T11:34:44;100415.53;;;7.33;89.75
74631;BME280;63138;55.082;38.804;2022-11-11T11:37:30;100409.56;;;7.30;89.84
74631;BME280;63138;55.082;38.804;2022-11-11T11:40:15;100402.16;;;7.32;89.71
74631;BME280;63138;55.082;38.804;2022-11-11T11:43:00;100395.03;;;7.31;90.16
74631;BME280;63138;55.082;38.804;2022-11-11T11:45:54;100405.72;;;7.32;90.27
74631;BME280;63138;55.082;38.804;2022-11-11T11:55:21;100432.59;;;7.34;90.05
74631;BME280;63138;55.082;38.804;2022-11-11T12:01:47;100423.50;;;7.35;90.08
74631;BME280;63138;55.082;38.804;2022-11-11T12:16:51;100438.28;;;7.31;90.48
74631;BME280;63138;55.082;38.804;2022-11-11T12:19:46;100441.56;;;7.24;90.29
74631;BME280;63138;55.082;38.804;2022-11-11T12:26:00;100445.66;;;7.28;90.64
74631;BME280;63138;55.082;38.804;2022-11-11T12:32:41;100451.06;;;7.28;90.96
74631;BME280;63138;55.082;38.804;2022-11-11T12:38:48;100452.78;;;7.30;91.11
74631;BME280;63138;55.082;38.804;2022-11-11T12:42:07;100453.78;;;7.28;91.09
74631;BME280;63138;55.082;38.804;2022-11-11T12:48:02;100434.88;;;7.19;91.26
74631;BME280;63138;55.082;38.804;2022-11-11T13:00:03;100449.94;;;7.21;91.71
74631;BME280;63138;55.082;38.804;2022-11-11T13:10:12;100428.59;;;7.18;92.44
74631;BME280;63138;55.082;38.804;2022-11-11T13:15:53;100414.25;;;7.18;92.24
74631;BME280;63138;55.082;38.804;2022-11-11T13:19:01;100424.09;;;7.19;91.86
74631;BME280;63138;55.082;38.804;2022-11-11T13:22:05;100412.72;;;7.15;92.33
74631;BME280;63138;55.082;38.804;2022-11-11T13:24:52;100402.03;;;7.14;92.16
74631;BME280;63138;55.082;38.804;2022-11-11T13:27:42;100394.78;;;7.14;92.52
74631;BME280;63138;55.082;38.804;2022-11-11T13:30:47;100401.91;;;7.15;92.34
74631;BME280;63138;55.082;38.804;2022-11-11T13:33:46;100397.63;;;7.13;92.90
74631;BME280;63138;55.082;38.804;2022-11-11T13:37:00;100413.56;;;7.16;92.47
74631;BME280;63138;55.082;38.804;2022-11-11T13:39:45;100409.00;;;7.16;93.00
74631;BME280;63138;55.082;38.804;2022-11-11T13:42:37;100395.50;;;7.16;93.05
74631;BME280;63138;55.082;38.804;2022-11-11T13:45:35;100402.75;;;7.16;93.12
74631;BME280;63138;55.082;38.804;2022-11-11T13:48:37;100405.31;;;7.17;92.80
74631;BME280;63138;55.082;38.804;2022-11-11T13:54:26;100410.72;;;7.17;92.52
74631;BME280;63138;55.082;38.804;2022-11-11T14:00:26;100397.22;;;7.17;92.68
74631;BME280;63138;55.082;38.804;2022-11-11T14:15:37;100380.31;;;7.15;93.55
74631;BME280;63138;55.082;38.804;2022-11-11T14:21:07;100398.19;;;7.16;93.16
74631;BME280;63138;55.082;38.804;2022-11-11T14:23:52;100398.06;;;7.18;93.70
74631;BME280;63138;55.082;38.804;2022-11-11T14:26:38;100406.28;;;7.16;93.61
74631;BME280;63138;55.082;38.804;2022-11-11T14:29:27;100410.44;;;7.20;93.79
74631;BME280;63138;55.082;38.804;2022-11-11T14:32:42;100412.13;;;7.21;93.77
74631;BME280;63138;55.082;38.804;2022-11-11T14:36:18;100396.94;;;7.20;93.24
74631;BME280;63138;55.082;38.804;2022-11-11T14:39:11;100402.47;;;7.19;94.07
74631;BME280;63138;55.082;38.804;2022-11-11T14:41:59;100410.44;;;7.20;94.06
74631;BME280;63138;55.082;38.804;2022-11-11T14:44:44;100405.03;;;7.20;93.68
74631;BME280;63138;55.082;38.804;2022-11-11T14:47:38;100413.13;;;7.20;93.43
74631;BME280;63138;55.082;38.804;2022-11-11T14:53:19;100425.75;;;7.20;94.38
74631;BME280;63138;55.082;38.804;2022-11-11T14:56:14;100423.94;;;7.20;94.25
74631;BME280;63138;55.082;38.804;2022-11-11T14:59:05;100420.38;;;7.20;94.08
74631;BME280;63138;55.082;38.804;2022-11-11T15:01:52;100412.25;;;7.20;94.29
74631;BME280;63138;55.082;38.804;2022-11-11T15:04:39;100397.22;;;7.17;93.99
74631;BME280;63138;55.082;38.804;2022-11-11T15:20:16;100408.13;;;7.25;94.31
74631;BME280;63138;55.082;38.804;2022-11-11T15:33:03;100384.38;;;7.29;93.69
74631;BME280;63138;55.082;38.804;2022-11-11T15:36:12;100391.38;;;7.32;93.83
74631;BME280;63138;55.082;38.804;2022-11-11T15:39:04;100375.16;;;7.22;94.02
74631;BME280;63138;55.082;38.804;2022-11-11T15:41:50;100386.81;;;7.32;93.47
74631;BME280;63138;55.082;38.804;2022-11-11T15:44:36;100380.28;;;7.35;93.80
74631;BME280;63138;55.082;38.804;2022-11-11T15:47:21;100390.78;;;7.38;93.75
74631;BME280;63138;55.082;38.804;2022-11-11T15:50:37;100398.88;;;7.38;94.53
74631;BME280;63138;55.082;38.804;2022-11-11T15:53:24;100388.22;;;7.36;93.91
74631;BME280;63138;55.082;38.804;2022-11-11T15:56:09;100392.91;;;7.34;95.78
74631;BME280;63138;55.082;38.804;2022-11-11T15:58:53;100399.88;;;7.37;95.51
74631;BME280;63138;55.082;38.804;2022-11-11T16:01:39;100389.94;;;7.37;94.73
74631;BME280;63138;55.082;38.804;2022-11-11T16:04:23;100390.78;;;7.38;94.32
74631;BME280;63138;55.082;38.804;2022-11-11T16:07:17;100385.38;;;7.38;94.29
74631;BME280;63138;55.082;38.804;2022-11-11T16:10:20;100381.69;;;7.39;94.00
74631;BME280;63138;55.082;38.804;2022-11-11T16:13:14;100384.25;;;7.40;93.51
74631;BME280;63138;55.082;38.804;2022-11-11T16:16:08;100379.69;;;7.41;93.16
74631;BME280;63138;55.082;38.804;2022-11-11T16:19:06;100383.09;;;7.43;93.41
74631;BME280;63138;55.082;38.804;2022-11-11T16:25:02;100386.50;;;7.45;92.88
74631;BME280;63138;55.082;38.804;2022-11-11T16:27:48;100410.53;;;7.48;92.35
74631;BME280;63138;55.082;38.804;2022-11-11T16:30:36;100406.97;;;7.47;92.38
74631;BME280;63138;55.082;38.804;2022-11-11T16:36:12;100415.78;;;7.50;92.89
74631;BME280;63138;55.082;38.804;2022-11-11T16:39:17;100416.63;;;7.50;92.23
74631;BME280;63138;55.082;38.804;2022-11-11T16:42:04;100423.75;;;7.51;92.10
74631;BME280;63138;55.082;38.804;2022-11-11T16:44:57;100421.06;;;7.51;92.31
74631;BME280;63138;55.082;38.804;2022-11-11T16:47:46;100430.00;;;7.52;91.81
74631;BME280;63138;55.082;38.804;2022-11-11T16:50:31;100430.72;;;7.54;91.89
74631;BME280;63138;55.082;38.804;2022-11-11T16:53:28;100420.75;;;7.54;91.47
74631;BME280;63138;55.082;38.804;2022-11-11T16:56:28;100417.06;;;7.55;91.09
74631;BME280;63138;55.082;38.804;2022-11-11T16:59:26;100412.63;;;7.54;91.24
74631;BME280;63138;55.082;38.804;2022-11-11T17:02:18;100413.66;;;7.53;90.99